Weather observations for the past three days for
Faribault, Faribault Municipal Airport
Imperial (Metric)
Date Time (cdt) Wind (mph) Vis. (mi.) Weather Sky Cond. Temperature (ºF) Relative Humidity Wind Chill (°F) Heat Index (°F) Pressure Precipitation (in)
Air Dwpt 6 hour altimeter (in) sea level (mb) 1 hr 3 hr 6 hr
Max. Min.
10 15:55 N 9 G 17 10.00 Partly Cloudy SCT075 60.8 26.6 27% 30.12 0.0
10 15:35 NW 13 G 18 10.00 Partly Cloudy SCT075 60.8 26.6 27% 30.12 0.0
10 15:15 W 7 G 18 10.00 Partly Cloudy SCT075 60.8 28.4 29% 30.12 0.0
10 14:55 N 10 G 17 10.00 Partly Cloudy SCT075 SCT080 60.8 28.4 29% 30.13 0.0
10 14:35 NW 6 G 9 10.00 Partly Cloudy SCT065 60.8 28.4 29% 30.12 0.0
10 14:15 NW 9 G 22 10.00 Partly Cloudy SCT065 60.8 30.2 31% 30.13 0.0
10 13:55 NW 9 G 21 10.00 Partly Cloudy SCT065 60.8 30.2 31% 30.13 0.0
10 13:35 N 7 G 17 10.00 Partly Cloudy SCT065 60.8 30.2 31% 30.13 0.0
10 13:15 NW 6 G 20 10.00 Partly Cloudy SCT065 59 28.4 31% 30.13 0.0
10 12:55 NW 10 10.00 Partly Cloudy SCT065 60.8 30.2 31% 30.12 0.0
10 12:35 N 12 10.00 Fair CLR 57.2 30.2 36% 30.13 0.0
10 12:15 N 7 10.00 Fair CLR 57.2 28.4 33% 30.13 0.0
10 11:55 NE 6 10.00 Partly Cloudy SCT095 55.4 28.4 36% 30.13 0.0
10 11:35 NW 8 10.00 Partly Cloudy SCT095 57.2 28.4 33% 30.13 0.0
10 11:15 N 10 10.00 Partly Cloudy SCT095 55.4 28.4 36% 30.12 0.0
10 10:55 NW 3 10.00 Partly Cloudy SCT095 53.6 26.6 35% 30.13 0.0
10 10:35 N 5 10.00 Mostly Cloudy BKN095 53.6 26.6 35% 30.12 0.0
10 10:15 NE 6 10.00 Mostly Cloudy BKN095 53.6 28.4 38% 30.12 0.0
10 09:55 N 6 10.00 Mostly Cloudy BKN095 51.8 28.4 41% 30.12 0.0
10 09:35 NE 5 10.00 Mostly Cloudy BKN095 51.8 30.2 44% 30.12 0.0
10 09:15 N 8 10.00 Mostly Cloudy BKN095 51.8 30.2 44% 30.12 0.0
10 08:55 N 7 10.00 Mostly Cloudy BKN095 48.2 30.2 50% 46 30.12 0.0
10 08:35 N 8 10.00 Mostly Cloudy BKN095 48.2 28.4 46% 45 30.11 0.0
10 08:15 NW 6 10.00 Mostly Cloudy BKN095 48.2 28.4 46% 46 30.11 0.0
10 07:55 NW 6 10.00 Overcast OVC095 46.4 30.2 53% 44 30.11 0.0
10 07:35 Calm 10.00 Overcast OVC095 44.6 32 61% 30.1 0.0
10 07:15 Calm 10.00 Overcast OVC095 42.8 32 66% 30.09 0.0
10 06:55 Calm 10.00 Overcast OVC095 42.8 30.2 61% 30.08 0.0
10 06:35 Calm 10.00 Mostly Cloudy BKN095 39.2 30.2 70% 30.07 0.0
10 06:15 Calm 10.00 Mostly Cloudy BKN095 41 30.2 66% 30.07 0.0
10 05:55 SW 3 10.00 Mostly Cloudy BKN095 39.2 28.4 65% 30.07 0.0
10 05:35 SW 3 10.00 Partly Cloudy SCT095 41 28.4 61% 30.06 0.0
10 05:15 SW 3 10.00 Mostly Cloudy BKN095 37.4 30.2 75% 30.06 0.0
10 04:55 Calm 10.00 Overcast OVC095 37.4 28.4 70% 30.06 0.0
10 04:35 Calm 10.00 Overcast OVC095 37.4 28.4 70% 30.05 0.0
10 04:15 Calm 10.00 Overcast OVC095 35.6 28.4 75% 30.04 0.0
10 03:55 Calm 10.00 Mostly Cloudy BKN095 35.6 28.4 75% 30.04 0.0
10 03:35 Calm 10.00 Fair CLR 33.8 28.4 81% 30.03 0.0
10 03:15 Calm 10.00 Fair CLR 35.6 28.4 75% 30.03 0.0
10 02:55 Calm 10.00 Fair CLR 35.6 28.4 75% 30.02 0.0
10 02:35 Calm 10.00 Fair CLR 37.4 30.2 75% 30.02 0.0
10 02:15 Calm 10.00 Fair CLR 37.4 30.2 75% 30.01 0.0
10 01:55 Calm 10.00 Fair CLR 37.4 28.4 70% 30.01 0.0
10 01:35 Calm 10.00 Fair CLR 42.8 26.6 53% 30.01 0.0
10 01:15 Calm 10.00 Fair CLR 44.6 26.6 49% 30.01 0.0
10 00:55 Calm 10.00 Fair CLR 46.4 26.6 46% 30.01 0.0
10 00:35 NW 3 10.00 Fair CLR 46.4 24.8 43% 30.01 0.0
10 00:15 NW 5 10.00 Fair CLR 48.2 24.8 40% 47 30.01 0.0
09 23:55 NW 3 10.00 Fair CLR 48.2 24.8 40% 30 0.0
09 23:35 NW 5 10.00 Fair CLR 48.2 24.8 40% 47 29.99 0.0
09 23:15 NW 5 10.00 Fair CLR 48.2 24.8 40% 47 29.99 0.0
09 22:55 NW 5 10.00 Fair CLR 50 24.8 37% 49 29.98 0.0
09 22:35 NW 5 10.00 Fair CLR 48.2 24.8 40% 47 29.98 0.0
09 22:15 NW 6 10.00 Fair CLR 50 24.8 37% 48 29.97 0.0
09 21:55 NW 5 10.00 Fair CLR 50 24.8 37% 49 29.97 0.0
09 21:35 NW 3 10.00 Fair CLR 51.8 24.8 35% 29.95 0.0
09 21:15 NW 3 10.00 Fair CLR 51.8 23 32% 29.94 0.0
09 20:55 NW 6 10.00 Fair CLR 53.6 23 30% 29.93 0.0
09 20:35 NW 5 10.00 Fair CLR 53.6 23 30% 29.91 0.0
09 20:15 NW 6 10.00 Fair CLR 55.4 23 28% 29.9 0.0
09 19:55 NW 8 10.00 Fair CLR 57.2 21.2 25% 29.89 0.0
09 19:35 NW 9 G 17 10.00 Fair CLR 57.2 21.2 25% 29.89 0.0
09 19:15 NW 13 G 18 10.00 Fair CLR 59 21.2 23% 29.88 0.0
09 18:55 N 17 G 23 10.00 Fair CLR 59 21.2 23% 29.87 0.0
09 18:35 N 15 G 23 10.00 Fair CLR 60.8 21.2 22% 29.87 0.0
09 18:15 NW 9 G 16 10.00 Fair CLR 60.8 21.2 22% 29.86 0.0
09 17:55 N 14 G 20 10.00 Fair CLR 60.8 21.2 22% 29.85 0.0
09 17:35 NW 9 G 21 10.00 Fair CLR 60.8 23 23% 29.85 0.0
09 17:15 N 14 G 20 10.00 Fair CLR 60.8 23 23% 29.84 0.0
09 16:55 NW 10 G 18 10.00 Fair CLR 60.8 21.2 22% 29.84 0.0
09 16:35 NW 13 G 16 10.00 Fair CLR 60.8 23 23% 29.83 0.0
09 16:15 NW 17 G 23 10.00 Fair CLR 60.8 21.2 22% 29.83 0.0
09 15:55 NW 15 G 25 10.00 Fair CLR 62.6 24.8 24% 29.82 0.0
09 15:35 N 13 G 21 10.00 Fair CLR 62.6 24.8 24% 29.82 0.0
09 15:15 N 12 G 23 10.00 Fair CLR 62.6 24.8 24% 29.81 0.0
09 14:55 NW 14 G 21 10.00 Fair CLR 60.8 24.8 25% 29.81 0.0
09 14:35 NW 12 G 24 10.00 Fair CLR 60.8 26.6 27% 29.81 0.0
09 14:15 NW 17 G 25 10.00 Fair CLR 60.8 24.8 25% 29.81 0.0
09 13:55 N 14 G 26 10.00 Fair CLR 60.8 24.8 25% 29.8 0.0
09 13:35 NW 14 G 26 10.00 Fair CLR 60.8 26.6 27% 29.79 0.0
09 13:15 NW 17 G 22 10.00 Fair CLR 60.8 26.6 27% 29.79 0.0
09 12:55 NW 14 G 26 10.00 Fair CLR 60.8 26.6 27% 29.78 0.0
09 12:35 N 22 G 29 10.00 Fair and Breezy CLR 59 26.6 29% 29.78 0.0
09 12:15 N 14 G 22 10.00 Fair CLR 60.8 28.4 29% 29.78 0.0
09 11:55 NW 18 G 25 10.00 Partly Cloudy SCT060 60.8 28.4 29% 29.77 0.0
09 11:35 NW 12 G 24 10.00 Fair CLR 59 30.2 34% 29.78 0.0
09 11:15 NW 16 G 21 10.00 Partly Cloudy SCT060 57.2 30.2 36% 29.77 0.0
09 10:55 NW 12 G 21 10.00 Partly Cloudy SCT043 55.4 30.2 38% 29.77 0.0
09 10:35 N 15 G 21 10.00 Mostly Cloudy BKN039 57.2 35.6 44% 29.76 0.0
09 10:15 NW 13 G 21 10.00 Mostly Cloudy BKN037 55.4 39.2 55% 29.75 0.0
09 09:55 N 13 G 21 10.00 Partly Cloudy SCT035 55.4 37.4 51% 29.74 0.0
09 09:35 NW 10 G 23 10.00 Partly Cloudy SCT042 55.4 39.2 55% 29.73 0.0
09 09:15 NW 15 G 21 10.00 Mostly Cloudy BKN040 55.4 41 59% 29.72 0.0
09 08:55 NW 17 G 21 10.00 Mostly Cloudy SCT029 BKN037 55.4 41 59% 29.71 0.0
09 08:35 NW 14 G 25 10.00 Mostly Cloudy BKN029 BKN037 53.6 42.8 67% 29.7 0.0
09 08:15 NW 10 G 20 10.00 Partly Cloudy SCT029 55.4 44.6 67% 29.69 0.0
09 07:55 NW 9 G 18 10.00 Partly Cloudy SCT027 55.4 42.8 63% 29.68 0.0
09 07:35 NW 13 G 20 10.00 Partly Cloudy SCT100 55.4 42.8 63% 29.67 0.0
09 07:15 W 13 G 18 10.00 Partly Cloudy SCT100 53.6 39.2 58% 29.66 0.0
09 06:55 W 9 10.00 Mostly Cloudy SCT060 BKN080 BKN100 53.6 39.2 58% 29.65 0.0
09 06:35 W 3 10.00 Mostly Cloudy SCT060 BKN070 50 37.4 62% 29.65 0.0
09 06:15 Calm 10.00 Light Rain SCT060 SCT070 BKN080 50 37.4 62% 29.65 0.0
09 05:55 Calm 10.00 Light Rain SCT065 SCT070 BKN080 51.8 33.8 50% 29.65 0.0
09 05:35 N 6 10.00 Overcast SCT080 OVC100 51.8 33.8 50% 29.64 0.0
09 05:15 NW 7 10.00 NULL NULL 51.8 32 47% 29.64 0.0
09 04:55 NW 5 10.00 Mostly Cloudy BKN100 51.8 33.8 50% 29.63 0.0
09 04:35 Calm 10.00 Overcast OVC100 48.2 35.6 62% 29.63 0.0
09 04:15 Calm 10.00 Overcast OVC100 48.2 33.8 58% 29.61 0.0
09 03:55 SW 3 10.00 Mostly Cloudy BKN100 48.2 30.2 50% 29.61 0.0
09 03:35 SW 5 10.00 Partly Cloudy SCT100 46.4 32 57% 45 29.6 0.0
09 03:15 SW 5 10.00 Partly Cloudy SCT120 46.4 37.4 71% 45 29.6 0.0
09 02:55 Calm 10.00 Partly Cloudy SCT120 46.4 35.6 66% 29.6 0.0
09 02:35 Calm 10.00 Fair CLR 44.6 33.8 66% 29.6 0.0
09 02:15 SW 5 10.00 Fair CLR 44.6 33.8 66% 43 29.6 0.0
09 01:55 Calm 10.00 Fair CLR 42.8 30.2 61% 29.62 0.0
09 01:35 Calm 10.00 Fair CLR 44.6 33.8 66% 29.62 0.0
09 01:15 Calm 10.00 Fair CLR 44.6 32 61% 29.63 0.0
09 00:55 SW 3 10.00 Fair CLR 46.4 33.8 62% 29.64 0.0
09 00:35 Calm 10.00 Fair CLR 48.2 33.8 58% 29.64 0.0
09 00:15 W 5 10.00 Fair CLR 53.6 28.4 38% 29.65 0.0
08 23:55 W 3 10.00 Fair CLR 55.4 30.2 38% 29.65 0.0
08 23:35 W 3 10.00 Fair CLR 57.2 30.2 36% 29.65 0.0
08 23:15 NW 3 10.00 Fair CLR 57.2 28.4 33% 29.65 0.0
08 22:55 NW 6 10.00 Fair CLR 59 28.4 31% 29.65 0.0
08 22:35 NW 5 10.00 Fair CLR 60.8 28.4 29% 29.64 0.0
08 22:15 NW 8 10.00 Fair CLR 62.6 28.4 27% 29.64 0.0
08 21:55 NW 7 10.00 Fair CLR 62.6 28.4 27% 29.63 0.0
08 21:35 NW 8 10.00 Fair CLR 62.6 28.4 27% 29.63 0.0
08 21:15 NW 8 10.00 Fair CLR 62.6 26.6 25% 29.62 0.0
08 20:55 NW 6 10.00 Fair CLR 64.4 26.6 24% 29.61 0.0
08 20:35 NW 8 10.00 Fair CLR 66.2 28.4 24% 29.6 0.0
08 20:15 NW 8 10.00 Fair CLR 66.2 28.4 24% 29.6 0.0
08 19:55 NW 9 G 18 10.00 Fair CLR 68 28.4 23% 29.59 0.0
08 19:35 NW 9 G 20 10.00 Fair CLR 69.8 28.4 21% 29.59 0.0
08 19:15 W 13 G 18 10.00 Partly Cloudy SCT110 69.8 28.4 21% 29.59 0.0
08 18:55 W 13 G 23 10.00 Partly Cloudy SCT100 71.6 28.4 20% 29.59 0.0
08 18:35 NW 16 G 25 10.00 Mostly Cloudy BKN100 71.6 30.2 22% 29.59 0.0
08 18:15 W 13 G 21 10.00 Fair CLR 71.6 32 23% 29.59 0.0
08 17:55 W 16 G 25 10.00 Partly Cloudy SCT100 71.6 32 23% 29.59 0.0
08 17:35 W 10 10.00 Partly Cloudy SCT100 71.6 33.8 25% 29.6 0.0
08 17:15 W 14 G 21 10.00 Partly Cloudy SCT100 71.6 30.2 22% 29.6 0.0
08 16:55 W 17 G 28 10.00 Partly Cloudy SCT110 71.6 30.2 22% 29.6 0.0
08 16:35 W 13 G 22 10.00 Partly Cloudy SCT110 73.4 30.2 20% 29.6 0.0
08 16:15 W 17 G 22 10.00 Partly Cloudy SCT110 73.4 26.6 17% 29.61 0.0
08 15:55 W 17 G 26 10.00 Partly Cloudy SCT110 71.6 26.6 19% 29.62 0.0
08 15:35 W 15 G 24 10.00 Partly Cloudy SCT110 73.4 24.8 16% 29.63 0.0
08 15:15 W 12 G 17 10.00 Partly Cloudy SCT110 71.6 24.8 17% 29.64 0.0
08 14:55 W 14 G 21 10.00 Partly Cloudy SCT110 71.6 24.8 17% 29.65 0.0
08 14:35 W 10 G 21 10.00 Partly Cloudy SCT110 71.6 26.6 19% 29.66 0.0
08 14:15 NW 13 G 20 10.00 Partly Cloudy SCT110 71.6 24.8 17% 29.66 0.0
08 13:55 W 14 G 21 10.00 Fair CLR 69.8 24.8 18% 29.67 0.0
08 13:35 W 9 G 20 10.00 Fair CLR 69.8 24.8 18% 29.68 0.0
08 13:15 SW 10 G 20 10.00 Fair CLR 69.8 24.8 18% 29.69 0.0
08 12:55 W 15 G 20 10.00 Fair CLR 69.8 24.8 18% 29.7 0.0
08 12:35 W 13 G 17 10.00 Fair CLR 68 26.6 21% 29.71 0.0
08 12:15 W 12 G 17 10.00 Fair CLR 68 28.4 23% 29.72 0.0
08 11:55 W 7 10.00 Partly Cloudy SCT100 66.2 24.8 21% 29.73 0.0
08 11:35 W 13 G 16 10.00 Partly Cloudy SCT100 66.2 26.6 22% 29.74 0.0
08 11:15 SW 9 10.00 Mostly Cloudy BKN100 64.4 26.6 24% 29.75 0.0
08 10:55 SW 9 10.00 Partly Cloudy SCT110 64.4 28.4 26% 29.75 0.0
08 10:35 SW 12 G 17 10.00 Mostly Cloudy BKN110 62.6 26.6 25% 29.75 0.0
08 10:15 W 12 G 16 10.00 Partly Cloudy SCT110 62.6 26.6 25% 29.76 0.0
08 09:55 SW 10 10.00 Partly Cloudy SCT110 60.8 26.6 27% 29.76 0.0
08 09:35 SW 8 10.00 Partly Cloudy SCT110 60.8 26.6 27% 29.77 0.0
08 09:15 S 12 10.00 Mostly Cloudy BKN100 57.2 26.6 31% 29.77 0.0
08 08:55 S 8 10.00 Partly Cloudy SCT110 55.4 26.6 33% 29.78 0.0
08 08:35 SW 8 10.00 Partly Cloudy SCT110 53.6 26.6 35% 29.78 0.0
08 08:15 S 8 10.00 Fair CLR 51.8 24.8 35% 29.79 0.0
08 07:55 S 7 10.00 Fair CLR 48.2 24.8 40% 46 29.79 0.0
08 07:35 S 6 10.00 Fair CLR 46.4 23 40% 44 29.79 0.0
08 07:15 S 5 10.00 Fair CLR 44.6 23 43% 43 29.79 0.0
08 06:55 S 3 10.00 Fair CLR 42.8 23 46% 29.79 0.0
08 06:35 S 3 10.00 Fair CLR 42.8 21.2 42% 29.79 0.0
08 06:15 S 3 10.00 Fair CLR 42.8 21.2 42% 29.79 0.0
08 05:55 S 5 10.00 Fair CLR 42.8 21.2 42% 41 29.79 0.0
08 05:35 S 6 10.00 Fair CLR 42.8 21.2 42% 40 29.79 0.0
08 05:15 S 7 10.00 Fair CLR 42.8 21.2 42% 39 29.79 0.0
08 04:55 S 6 10.00 Fair CLR 42.8 21.2 42% 40 29.79 0.0
08 04:35 S 6 10.00 Fair CLR 42.8 21.2 42% 40 29.79 0.0
08 04:15 S 7 10.00 Fair CLR 42.8 21.2 42% 39 29.79 0.0
08 03:55 S 6 10.00 Fair CLR 42.8 19.4 39% 40 29.79 0.0
08 03:35 S 9 10.00 Fair CLR 44.6 19.4 37% 40 29.79 0.0
08 03:15 S 8 10.00 Fair CLR 44.6 19.4 37% 41 29.79 0.0
08 02:55 S 7 10.00 Fair CLR 42.8 21.2 42% 39 29.8 0.0
08 02:35 S 5 10.00 Fair CLR 42.8 21.2 42% 41 29.81 0.0
08 02:15 S 5 10.00 Fair CLR 42.8 21.2 42% 41 29.81 0.0
08 01:55 Calm 10.00 Fair CLR 37.4 23 56% 29.81 0.0
08 01:35 Calm 10.00 Fair CLR 37.4 24.8 60% 29.82 0.0
08 01:15 Calm 10.00 Fair CLR 37.4 24.8 60% 29.82 0.0
08 00:55 S 3 10.00 Fair CLR 37.4 24.8 60% 29.82 0.0
08 00:35 Calm 10.00 Fair CLR 37.4 28.4 70% 29.83 0.0
08 00:15 Calm 10.00 Fair CLR 37.4 28.4 70% 29.83 0.0
07 23:55 Calm 10.00 Fair CLR 35.6 26.6 70% 29.83 0.0
07 23:35 S 5 10.00 Fair CLR 39.2 26.6 61% 36 29.83 0.0
07 23:15 Calm 10.00 Fair CLR 37.4 26.6 65% 29.84 0.0
07 22:55 Calm 10.00 Fair CLR 37.4 26.6 65% 29.84 0.0
07 22:35 Calm 10.00 Fair CLR 41 24.8 53% 29.84 0.0
07 21:55 Calm 10.00 Fair CLR 39.2 28.4 65% 29.84 0.0
07 21:35 Calm 10.00 Fair CLR 41 28.4 61% 29.84 0.0
07 21:15 Calm 10.00 Fair CLR 46.4 23 40% 29.83 0.0
07 20:55 Calm 10.00 Fair CLR 46.4 26.6 46% 29.82 0.0
07 20:35 Calm 10.00 Fair CLR 48.2 21.2 34% 29.82 0.0
07 20:15 Calm 10.00 Fair CLR 53.6 19.4 26% 29.82 0.0
07 19:55 Calm 10.00 Fair CLR 55.4 19.4 24% 29.81 0.0
07 19:35 N 5 10.00 Fair CLR 57.2 17.6 21% 29.81 0.0
07 19:15 NW 5 10.00 Fair CLR 57.2 17.6 21% 29.81 0.0
07 18:55 N 6 10.00 Fair CLR 59 17.6 20% 29.81 0.0
07 18:35 W 8 10.00 Fair CLR 59 17.6 20% 29.82 0.0
07 18:15 NW 5 10.00 Fair CLR 59 17.6 20% 29.82 0.0
07 17:55 NW 6 10.00 Fair CLR 59 17.6 20% 29.82 0.0
07 17:35 NW 6 10.00 Fair CLR 59 15.8 18% 29.82 0.0
07 17:15 W 12 G 16 10.00 Fair CLR 59 17.6 20% 29.83 0.0
07 16:55 W 10 G 16 10.00 Fair CLR 59 19.4 21% 29.83 0.0
07 16:35 NW 9 10.00 Fair CLR 59 17.6 20% 29.84 0.0
07 16:15 NW 10 10.00 Fair CLR 57.2 17.6 21% 29.84 0.0
Date Time (cdt) Wind (mph) Vis. (mi.) Weather Sky Cond. Air Dwpt Max. Min. Relative Humidity Wind Chill (°F) Heat Index (°F) altimeter (in) sea level (mb) 1 hr 3 hr 6 hr
6 hour
Temperature (ºF) Pressure Precipitation (in)